PRIVATE WETTERSTATION BILLIGHEIM-ALLFELD                       ZURCK
Wetterdaten: Montag, 03.07.2017
Datum Zeit Temp. A. Temp. A. min Temp. A. max Feuchte A. Luftdruck Regen Wind Richtung Richtung Sonnenschein ET Solar Taupunkt Windchill Windben Empfang
03.07.2017 00:00 14,3 C 14,3 C 14,3 C 89 % 1021,1 hPa 0,0 l/m 1,6 km/h (1 Bft) W-SW 247 0 min 0,000 mm 0 W/m 12,5 C 14,3 C 6,4 km/h (2 Bft) 100 %
03.07.2017 00:10 14,3 C 14,3 C 14,3 C 90 % 1021,1 hPa 0,0 l/m 1,6 km/h (1 Bft) W 270 0 min 0,000 mm 0 W/m 12,7 C 14,3 C 8,0 km/h (2 Bft) 99 %
03.07.2017 00:20 14,3 C 14,3 C 14,3 C 90 % 1021,2 hPa 0,0 l/m 1,6 km/h (1 Bft) W 270 0 min 0,000 mm 0 W/m 12,7 C 14,3 C 9,7 km/h (2 Bft) 100 %
03.07.2017 00:30 14,2 C 14,2 C 14,3 C 90 % 1021,2 hPa 0,0 l/m 1,6 km/h (1 Bft) W 270 0 min 0,000 mm 0 W/m 12,6 C 14,2 C 4,8 km/h (1 Bft) 100 %
03.07.2017 00:40 14,1 C 14,1 C 14,2 C 90 % 1021,3 hPa 0,0 l/m 0,0 km/h (0 Bft) W 270 0 min 0,000 mm 0 W/m 12,5 C 14,1 C 4,8 km/h (1 Bft) 100 %
03.07.2017 00:50 14,0 C 14,0 C 14,1 C 90 % 1021,3 hPa 0,0 l/m 0,0 km/h (0 Bft) W 270 0 min 0,000 mm 0 W/m 12,4 C 14,0 C 4,8 km/h (1 Bft) 100 %
03.07.2017 01:00 14,1 C 14,0 C 14,1 C 90 % 1021,3 hPa 0,0 l/m 0,0 km/h (0 Bft) W 270 0 min 0,000 mm 0 W/m 12,5 C 14,1 C 4,8 km/h (1 Bft) 100 %
03.07.2017 01:10 14,1 C 14,1 C 14,1 C 90 % 1021,3 hPa 0,0 l/m 1,6 km/h (1 Bft) W 270 0 min 0,000 mm 0 W/m 12,5 C 14,1 C 11,3 km/h (2 Bft) 100 %
03.07.2017 01:20 14,1 C 14,1 C 14,1 C 90 % 1021,4 hPa 0,0 l/m 1,6 km/h (1 Bft) W 270 0 min 0,000 mm 0 W/m 12,5 C 14,1 C 9,7 km/h (2 Bft) 100 %
03.07.2017 01:30 14,2 C 14,1 C 14,2 C 90 % 1021,6 hPa 0,0 l/m 3,2 km/h (1 Bft) W 270 0 min 0,000 mm 0 W/m 12,6 C 14,2 C 8,0 km/h (2 Bft) 100 %
03.07.2017 01:40 14,2 C 14,2 C 14,2 C 90 % 1021,6 hPa 0,0 l/m 3,2 km/h (1 Bft) W 270 0 min 0,000 mm 0 W/m 12,6 C 14,2 C 8,0 km/h (2 Bft) 100 %
03.07.2017 01:50 14,3 C 14,2 C 14,3 C 91 % 1021,6 hPa 0,0 l/m 1,6 km/h (1 Bft) W 270 0 min 0,000 mm 0 W/m 12,8 C 14,3 C 9,7 km/h (2 Bft) 100 %
03.07.2017 02:00 14,3 C 14,3 C 14,3 C 90 % 1021,6 hPa 0,0 l/m 1,6 km/h (1 Bft) W-SW 247 0 min 0,000 mm 0 W/m 12,7 C 14,3 C 4,8 km/h (1 Bft) 100 %
03.07.2017 02:10 14,3 C 14,3 C 14,3 C 91 % 1021,6 hPa 0,0 l/m 3,2 km/h (1 Bft) W-SW 247 0 min 0,000 mm 0 W/m 12,8 C 14,3 C 8,0 km/h (2 Bft) 100 %
03.07.2017 02:20 14,3 C 14,3 C 14,3 C 91 % 1021,7 hPa 0,0 l/m 3,2 km/h (1 Bft) SW 225 0 min 0,000 mm 0 W/m 12,8 C 14,3 C 9,7 km/h (2 Bft) 100 %
03.07.2017 02:30 14,3 C 14,3 C 14,3 C 90 % 1021,6 hPa 0,0 l/m 1,6 km/h (1 Bft) W-SW 247 0 min 0,000 mm 0 W/m 12,7 C 14,3 C 6,4 km/h (2 Bft) 100 %
03.07.2017 02:40 14,3 C 14,3 C 14,3 C 91 % 1021,7 hPa 0,0 l/m 3,2 km/h (1 Bft) W-SW 247 0 min 0,000 mm 0 W/m 12,8 C 14,3 C 8,0 km/h (2 Bft) 100 %
03.07.2017 02:50 14,3 C 14,3 C 14,3 C 91 % 1021,8 hPa 0,0 l/m 3,2 km/h (1 Bft) W-SW 247 0 min 0,000 mm 0 W/m 12,8 C 14,3 C 9,7 km/h (2 Bft) 100 %
03.07.2017 03:00 14,3 C 14,3 C 14,3 C 91 % 1021,8 hPa 0,0 l/m 3,2 km/h (1 Bft) W-SW 247 0 min 0,000 mm 0 W/m 12,8 C 14,3 C 6,4 km/h (2 Bft) 100 %
03.07.2017 03:10 14,2 C 14,2 C 14,3 C 91 % 1021,9 hPa 0,0 l/m 1,6 km/h (1 Bft) W-SW 247 0 min 0,000 mm 0 W/m 12,8 C 14,2 C 6,4 km/h (2 Bft) 100 %
03.07.2017 03:20 14,2 C 14,2 C 14,2 C 91 % 1021,9 hPa 0,0 l/m 1,6 km/h (1 Bft) W-SW 247 0 min 0,000 mm 0 W/m 12,8 C 14,2 C 6,4 km/h (2 Bft) 100 %
03.07.2017 03:30 14,2 C 14,2 C 14,2 C 91 % 1021,9 hPa 0,0 l/m 1,6 km/h (1 Bft) W 270 0 min 0,000 mm 0 W/m 12,8 C 14,2 C 4,8 km/h (1 Bft) 100 %
03.07.2017 03:40 14,2 C 14,2 C 14,3 C 91 % 1021,9 hPa 0,0 l/m 1,6 km/h (1 Bft) W-SW 247 0 min 0,000 mm 0 W/m 12,8 C 14,2 C 9,7 km/h (2 Bft) 100 %
03.07.2017 03:50 14,3 C 14,2 C 14,3 C 91 % 1021,8 hPa 0,0 l/m 1,6 km/h (1 Bft) W-SW 247 0 min 0,000 mm 0 W/m 12,8 C 14,3 C 8,0 km/h (2 Bft) 100 %
03.07.2017 04:00 14,3 C 14,3 C 14,3 C 91 % 1021,8 hPa 0,0 l/m 3,2 km/h (1 Bft) W-SW 247 0 min 0,000 mm 0 W/m 12,8 C 14,3 C 9,7 km/h (2 Bft) 100 %
03.07.2017 04:10 14,3 C 14,3 C 14,3 C 91 % 1021,8 hPa 0,0 l/m 1,6 km/h (1 Bft) W-SW 247 0 min 0,000 mm 0 W/m 12,8 C 14,3 C 6,4 km/h (2 Bft) 100 %
03.07.2017 04:20 14,3 C 14,3 C 14,3 C 91 % 1021,8 hPa 0,0 l/m 1,6 km/h (1 Bft) W-SW 247 0 min 0,000 mm 0 W/m 12,8 C 14,3 C 4,8 km/h (1 Bft) 100 %
03.07.2017 04:30 14,3 C 14,3 C 14,3 C 91 % 1021,8 hPa 0,0 l/m 0,0 km/h (0 Bft) W-SW 247 0 min 0,000 mm 0 W/m 12,8 C 14,3 C 4,8 km/h (1 Bft) 100 %
03.07.2017 04:40 14,3 C 14,3 C 14,3 C 91 % 1021,8 hPa 0,0 l/m 1,6 km/h (1 Bft) W-SW 247 0 min 0,000 mm 0 W/m 12,8 C 14,3 C 8,0 km/h (2 Bft) 100 %
03.07.2017 04:50 14,3 C 14,3 C 14,3 C 91 % 1021,8 hPa 0,0 l/m 3,2 km/h (1 Bft) W-SW 247 0 min 0,000 mm 0 W/m 12,8 C 14,3 C 9,7 km/h (2 Bft) 100 %
03.07.2017 05:00 14,3 C 14,2 C 14,3 C 91 % 1021,8 hPa 0,0 l/m 3,2 km/h (1 Bft) W-SW 247 0 min 0,000 mm 0 W/m 12,8 C 14,3 C 8,0 km/h (2 Bft) 100 %
03.07.2017 05:10 14,3 C 14,3 C 14,3 C 91 % 1021,8 hPa 0,0 l/m 1,6 km/h (1 Bft) W 270 0 min 0,000 mm 0 W/m 12,8 C 14,3 C 6,4 km/h (2 Bft) 100 %
03.07.2017 05:20 14,3 C 14,2 C 14,3 C 91 % 1021,9 hPa 0,0 l/m 1,6 km/h (1 Bft) W 270 0 min 0,000 mm 0 W/m 12,8 C 14,3 C 4,8 km/h (1 Bft) 100 %
03.07.2017 05:30 14,2 C 14,2 C 14,3 C 91 % 1021,8 hPa 0,0 l/m 0,0 km/h (0 Bft) W 270 0 min 0,000 mm 0 W/m 12,8 C 14,2 C 6,4 km/h (2 Bft) 100 %
03.07.2017 05:40 14,2 C 14,2 C 14,2 C 91 % 1021,8 hPa 0,0 l/m 3,2 km/h (1 Bft) W 270 0 min 0,000 mm 9 W/m 12,8 C 14,2 C 8,0 km/h (2 Bft) 99 %
03.07.2017 05:50 14,2 C 14,2 C 14,2 C 91 % 1021,8 hPa 0,0 l/m 3,2 km/h (1 Bft) W 270 0 min 0,000 mm 19 W/m 12,8 C 14,2 C 8,0 km/h (2 Bft) 100 %
03.07.2017 06:00 14,1 C 14,1 C 14,2 C 91 % 1021,9 hPa 0,0 l/m 1,6 km/h (1 Bft) W 270 0 min 0,000 mm 32 W/m 12,7 C 14,1 C 6,4 km/h (2 Bft) 100 %
03.07.2017 06:10 14,2 C 14,1 C 14,2 C 91 % 1022,0 hPa 0,0 l/m 3,2 km/h (1 Bft) W 270 0 min 0,000 mm 37 W/m 12,8 C 14,2 C 9,7 km/h (2 Bft) 100 %
03.07.2017 06:20 14,2 C 14,2 C 14,2 C 91 % 1022,2 hPa 0,0 l/m 3,2 km/h (1 Bft) W-NW 292 0 min 0,000 mm 30 W/m 12,8 C 14,2 C 8,0 km/h (2 Bft) 100 %
03.07.2017 06:30 14,3 C 14,2 C 14,3 C 91 % 1022,2 hPa 0,0 l/m 3,2 km/h (1 Bft) W-NW 292 0 min 0,000 mm 33 W/m 12,8 C 14,3 C 8,0 km/h (2 Bft) 100 %
03.07.2017 06:40 14,3 C 14,3 C 14,3 C 91 % 1022,3 hPa 0,0 l/m 3,2 km/h (1 Bft) W 270 0 min 0,000 mm 35 W/m 12,8 C 14,3 C 6,4 km/h (2 Bft) 100 %
03.07.2017 06:50 14,4 C 14,3 C 14,4 C 91 % 1022,2 hPa 0,0 l/m 3,2 km/h (1 Bft) W 270 0 min 0,000 mm 42 W/m 12,9 C 14,4 C 9,7 km/h (2 Bft) 90 %
03.07.2017 07:00 14,4 C 14,4 C 14,4 C 91 % 1022,2 hPa 0,0 l/m 3,2 km/h (1 Bft) W 270 0 min 0,025 mm 44 W/m 12,9 C 14,4 C 8,0 km/h (2 Bft) 100 %
03.07.2017 07:10 14,5 C 14,4 C 14,5 C 91 % 1022,3 hPa 0,0 l/m 1,6 km/h (1 Bft) W 270 0 min 0,000 mm 42 W/m 13,0 C 14,5 C 6,4 km/h (2 Bft) 99 %
03.07.2017 07:20 14,6 C 14,5 C 14,6 C 91 % 1022,3 hPa 0,0 l/m 0,0 km/h (0 Bft) W 270 0 min 0,000 mm 70 W/m 13,1 C 14,6 C 4,8 km/h (1 Bft) 100 %
03.07.2017 07:30 14,7 C 14,6 C 14,7 C 91 % 1022,5 hPa 0,0 l/m 0,0 km/h (0 Bft) W 270 0 min 0,000 mm 72 W/m 13,2 C 14,7 C 4,8 km/h (1 Bft) 99 %
03.07.2017 07:40 14,9 C 14,7 C 14,9 C 91 % 1022,5 hPa 0,0 l/m 1,6 km/h (1 Bft) W 270 0 min 0,000 mm 84 W/m 13,4 C 14,9 C 6,4 km/h (2 Bft) 99 %
03.07.2017 07:50 15,1 C 14,9 C 15,1 C 91 % 1022,5 hPa 0,0 l/m 1,6 km/h (1 Bft) SW 225 0 min 0,000 mm 83 W/m 13,6 C 15,1 C 6,4 km/h (2 Bft) 100 %
03.07.2017 08:00 15,1 C 15,1 C 15,1 C 90 % 1022,6 hPa 0,0 l/m 1,6 km/h (1 Bft) SW 225 0 min 0,025 mm 74 W/m 13,5 C 15,1 C 8,0 km/h (2 Bft) 98 %
03.07.2017 08:10 15,1 C 15,1 C 15,1 C 90 % 1022,6 hPa 0,0 l/m 0,0 km/h (0 Bft) W 270 0 min 0,000 mm 76 W/m 13,5 C 15,1 C 4,8 km/h (1 Bft) 99 %
03.07.2017 08:20 15,1 C 15,1 C 15,1 C 90 % 1022,6 hPa 0,0 l/m 0,0 km/h (0 Bft) W 270 0 min 0,000 mm 83 W/m 13,5 C 15,1 C 1,6 km/h (1 Bft) 98 %
03.07.2017 08:30 15,1 C 15,1 C 15,1 C 90 % 1022,6 hPa 0,0 l/m 0,0 km/h (0 Bft) N 0 0 min 0,000 mm 114 W/m 13,5 C 15,1 C 0,0 km/h (0 Bft) 97 %
03.07.2017 08:50 15,4 C 15,1 C 15,5 C 90 % 1022,6 hPa 0,0 l/m 0,0 km/h (0 Bft) W-SW 257 0 min 0,001 mm 134 W/m 13,8 C 15,4 C 0,0 km/h (0 Bft) 100 %
03.07.2017 09:00 15,6 C 15,4 C 15,6 C 90 % 1022,6 hPa 0,0 l/m 1,0 km/h (0 Bft) W-SW 241 10 min 0,000 mm 163 W/m 14,0 C 15,6 C 6,4 km/h (2 Bft) 100 %
03.07.2017 09:10 15,8 C 15,6 C 15,8 C 90 % 1022,5 hPa 0,0 l/m 0,1 km/h (0 Bft) W-SW 241 10 min 0,051 mm 169 W/m 14,2 C 15,8 C 4,8 km/h (1 Bft) 100 %
03.07.2017 09:20 16,0 C 15,8 C 16,0 C 90 % 1022,6 hPa 0,0 l/m 0,0 km/h (0 Bft) W-SW 241 10 min 0,000 mm 185 W/m 14,4 C 16,0 C 0,0 km/h (0 Bft) 99 %
03.07.2017 09:30 16,2 C 16,0 C 16,2 C 89 % 1022,5 hPa 0,0 l/m 2,6 km/h (1 Bft) SW 219 0 min 0,000 mm 109 W/m 14,4 C 16,2 C 8,0 km/h (2 Bft) 100 %
03.07.2017 09:40 16,2 C 16,2 C 16,2 C 89 % 1022,5 hPa 0,0 l/m 2,2 km/h (1 Bft) S-SW 208 10 min 0,000 mm 186 W/m 14,4 C 16,2 C 11,3 km/h (2 Bft) 100 %
03.07.2017 09:50 16,4 C 16,2 C 16,4 C 89 % 1022,5 hPa 0,0 l/m 0,6 km/h (0 Bft) SW 216 10 min 0,000 mm 185 W/m 14,6 C 16,4 C 6,4 km/h (2 Bft) 100 %
03.07.2017 10:00 16,5 C 16,4 C 16,5 C 88 % 1022,4 hPa 0,0 l/m 2,9 km/h (1 Bft) W-SW 249 0 min 0,000 mm 97 W/m 14,5 C 16,5 C 9,7 km/h (2 Bft) 98 %
03.07.2017 10:10 16,3 C 16,3 C 16,5 C 89 % 1022,5 hPa 0,0 l/m 6,2 km/h (2 Bft) SW 217 0 min 0,101 mm 149 W/m 14,5 C 16,3 C 17,7 km/h (3 Bft) 99 %
03.07.2017 10:20 16,7 C 16,3 C 16,7 C 90 % 1022,5 hPa 0,0 l/m 2,0 km/h (1 Bft) SW 217 10 min 0,000 mm 970 W/m 15,0 C 16,7 C 8,0 km/h (2 Bft) 99 %
03.07.2017 10:30 17,3 C 16,7 C 17,3 C 88 % 1022,5 hPa 0,0 l/m 5,6 km/h (1 Bft) W 259 10 min 0,000 mm 397 W/m 15,3 C 17,3 C 17,7 km/h (3 Bft) 100 %
03.07.2017 10:40 17,5 C 17,3 C 17,6 C 85 % 1022,6 hPa 0,0 l/m 4,4 km/h (1 Bft) SW 234 10 min 0,000 mm 302 W/m 14,9 C 17,5 C 14,5 km/h (3 Bft) 100 %
03.07.2017 10:50 17,8 C 17,5 C 17,8 C 86 % 1022,6 hPa 0,0 l/m 5,4 km/h (1 Bft) SW 217 10 min 0,000 mm 323 W/m 15,4 C 17,8 C 17,7 km/h (3 Bft) 100 %
03.07.2017 11:00 17,8 C 17,8 C 17,8 C 85 % 1022,6 hPa 0,0 l/m 8,0 km/h (2 Bft) S-SW 207 10 min 0,000 mm 401 W/m 15,2 C 17,0 C 17,7 km/h (3 Bft) 100 %
03.07.2017 11:10 18,1 C 17,8 C 18,1 C 81 % 1022,6 hPa 0,0 l/m 6,0 km/h (2 Bft) W 278 10 min 0,178 mm 411 W/m 14,8 C 18,1 C 17,7 km/h (3 Bft) 100 %
03.07.2017 11:20 18,3 C 18,1 C 18,3 C 81 % 1022,4 hPa 0,0 l/m 6,5 km/h (2 Bft) SW 229 10 min 0,000 mm 239 W/m 15,0 C 18,3 C 19,3 km/h (3 Bft) 100 %
03.07.2017 11:30 18,4 C 18,3 C 18,4 C 81 % 1022,4 hPa 0,0 l/m 6,6 km/h (2 Bft) SW 214 10 min 0,000 mm 394 W/m 15,1 C 18,3 C 16,1 km/h (3 Bft) 100 %
03.07.2017 11:40 18,9 C 18,4 C 18,9 C 82 % 1022,2 hPa 0,0 l/m 7,3 km/h (2 Bft) SW 230 10 min 0,000 mm 1056 W/m 15,8 C 18,5 C 17,7 km/h (3 Bft) 100 %
03.07.2017 11:50 19,2 C 18,9 C 19,2 C 77 % 1022,1 hPa 0,0 l/m 9,1 km/h (2 Bft) SW 223 10 min 0,000 mm 272 W/m 15,1 C 18,1 C 22,5 km/h (4 Bft) 100 %
03.07.2017 12:00 19,4 C 19,2 C 19,4 C 79 % 1022,1 hPa 0,0 l/m 6,1 km/h (2 Bft) W-SW 254 10 min 0,279 mm 348 W/m 15,7 C 19,4 C 16,1 km/h (3 Bft) 100 %
03.07.2017 12:10 19,6 C 19,4 C 19,6 C 79 % 1022,0 hPa 0,0 l/m 7,8 km/h (2 Bft) W 275 10 min 0,000 mm 1035 W/m 15,9 C 19,0 C 19,3 km/h (3 Bft) 99 %
03.07.2017 12:20 19,9 C 19,6 C 19,9 C 73 % 1022,0 hPa 0,0 l/m 5,9 km/h (2 Bft) W-NW 298 10 min 0,000 mm 255 W/m 14,9 C 19,9 C 16,1 km/h (3 Bft) 100 %
03.07.2017 12:30 20,0 C 19,8 C 20,0 C 76 % 1021,9 hPa 0,0 l/m 6,7 km/h (2 Bft) W-SW 240 10 min 0,000 mm 1000 W/m 15,6 C 19,9 C 17,7 km/h (3 Bft) 100 %
03.07.2017 12:40 20,3 C 20,0 C 20,3 C 74 % 1021,9 hPa 0,0 l/m 6,0 km/h (2 Bft) W-SW 251 10 min 0,000 mm 274 W/m 15,5 C 20,3 C 14,5 km/h (3 Bft) 99 %
03.07.2017 12:50 20,9 C 20,3 C 20,9 C 72 % 1021,8 hPa 0,0 l/m 7,6 km/h (2 Bft) W 261 10 min 0,000 mm 1011 W/m 15,7 C 20,4 C 22,5 km/h (4 Bft) 100 %
03.07.2017 13:00 21,7 C 20,9 C 21,7 C 69 % 1021,8 hPa 0,0 l/m 7,1 km/h (2 Bft) W 281 10 min 0,407 mm 255 W/m 15,8 C 21,5 C 16,1 km/h (3 Bft) 100 %
03.07.2017 13:10 21,6 C 21,5 C 21,8 C 72 % 1021,8 hPa 0,0 l/m 9,5 km/h (2 Bft) W-NW 296 10 min 0,000 mm 1056 W/m 16,3 C 20,6 C 17,7 km/h (3 Bft) 100 %
03.07.2017 13:20 21,6 C 21,5 C 21,6 C 69 % 1021,5 hPa 0,0 l/m 6,6 km/h (2 Bft) W-SW 247 10 min 0,000 mm 1086 W/m 15,7 C 21,5 C 17,7 km/h (3 Bft) 100 %
03.07.2017 13:30 21,5 C 21,5 C 21,6 C 68 % 1021,5 hPa 0,0 l/m 8,2 km/h (2 Bft) S-SW 192 10 min 0,000 mm 1129 W/m 15,3 C 20,9 C 19,3 km/h (3 Bft) 100 %
03.07.2017 13:40 21,9 C 21,5 C 21,9 C 66 % 1021,4 hPa 0,0 l/m 6,2 km/h (2 Bft) W-SW 248 10 min 0,000 mm 990 W/m 15,3 C 21,9 C 20,9 km/h (4 Bft) 100 %
03.07.2017 13:50 22,4 C 21,9 C 22,4 C 62 % 1021,3 hPa 0,0 l/m 4,2 km/h (1 Bft) W 265 10 min 0,000 mm 309 W/m 14,8 C 22,4 C 11,3 km/h (2 Bft) 100 %
03.07.2017 14:00 22,5 C 22,3 C 22,5 C 64 % 1021,2 hPa 0,0 l/m 7,7 km/h (2 Bft) SW 233 10 min 0,457 mm 1048 W/m 15,3 C 22,1 C 25,7 km/h (4 Bft) 100 %
03.07.2017 14:10 22,1 C 22,1 C 22,5 C 64 % 1021,2 hPa 0,0 l/m 7,6 km/h (2 Bft) S-SW 203 10 min 0,000 mm 288 W/m 15,0 C 21,7 C 20,9 km/h (4 Bft) 98 %
03.07.2017 14:20 21,9 C 21,9 C 22,1 C 64 % 1021,1 hPa 0,0 l/m 4,3 km/h (1 Bft) SW 223 10 min 0,000 mm 991 W/m 14,8 C 21,9 C 17,7 km/h (3 Bft) 100 %
03.07.2017 14:30 22,2 C 21,9 C 22,2 C 62 % 1020,9 hPa 0,0 l/m 4,9 km/h (1 Bft) S-SW 206 10 min 0,000 mm 156 W/m 14,6 C 22,2 C 16,1 km/h (3 Bft) 100 %
03.07.2017 14:40 21,8 C 21,8 C 22,2 C 65 % 1020,8 hPa 0,0 l/m 2,5 km/h (1 Bft) SW 223 10 min 0,000 mm 223 W/m 14,9 C 21,8 C 19,3 km/h (3 Bft) 100 %
03.07.2017 14:50 22,1 C 21,8 C 22,1 C 63 % 1020,7 hPa 0,0 l/m 2,9 km/h (1 Bft) W-SW 246 10 min 0,000 mm 944 W/m 14,7 C 22,1 C 14,5 km/h (3 Bft) 100 %
03.07.2017 15:00 22,8 C 22,1 C 22,8 C 59 % 1020,5 hPa 0,0 l/m 9,8 km/h (2 Bft) W-NW 290 10 min 0,381 mm 427 W/m 14,4 C 21,8 C 27,4 km/h (4 Bft) 100 %
03.07.2017 15:10 23,1 C 22,8 C 23,1 C 60 % 1020,5 hPa 0,0 l/m 9,7 km/h (2 Bft) W-SW 256 10 min 0,000 mm 891 W/m 14,9 C 22,1 C 25,7 km/h (4 Bft) 100 %
03.07.2017 15:20 23,2 C 23,1 C 23,2 C 60 % 1020,4 hPa 0,0 l/m 5,2 km/h (1 Bft) W 263 10 min 0,000 mm 195 W/m 15,0 C 23,2 C 22,5 km/h (4 Bft) 100 %
03.07.2017 15:30 23,3 C 23,2 C 23,3 C 55 % 1020,3 hPa 0,0 l/m 7,0 km/h (2 Bft) W 263 0 min 0,000 mm 144 W/m 13,7 C 23,1 C 20,9 km/h (4 Bft) 100 %
03.07.2017 15:40 23,5 C 23,3 C 23,6 C 57 % 1020,3 hPa 0,0 l/m 10,0 km/h (2 Bft) SW 222 10 min 0,000 mm 206 W/m 14,5 C 22,5 C 22,5 km/h (4 Bft) 100 %
03.07.2017 15:50 23,6 C 23,5 C 23,7 C 56 % 1020,4 hPa 0,0 l/m 6,2 km/h (2 Bft) W-SW 248 10 min 0,000 mm 169 W/m 14,3 C 23,6 C 20,9 km/h (4 Bft) 100 %
03.07.2017 16:00 23,2 C 23,2 C 23,6 C 59 % 1020,3 hPa 0,0 l/m 5,2 km/h (1 Bft) SW 218 10 min 0,279 mm 905 W/m 14,7 C 23,2 C 17,7 km/h (3 Bft) 100 %
03.07.2017 16:10 23,3 C 23,1 C 23,3 C 57 % 1020,1 hPa 0,0 l/m 9,4 km/h (2 Bft) SW 215 10 min 0,000 mm 846 W/m 14,3 C 22,4 C 22,5 km/h (4 Bft) 100 %
03.07.2017 16:20 23,5 C 23,3 C 23,6 C 57 % 1020,0 hPa 0,0 l/m 8,7 km/h (2 Bft) SW 234 10 min 0,000 mm 206 W/m 14,5 C 22,8 C 27,4 km/h (4 Bft) 100 %
03.07.2017 16:30 22,9 C 22,9 C 23,5 C 59 % 1019,9 hPa 0,0 l/m 7,9 km/h (2 Bft) W 261 10 min 0,000 mm 230 W/m 14,5 C 22,4 C 24,1 km/h (4 Bft) 100 %
03.07.2017 16:40 22,6 C 22,6 C 22,9 C 60 % 1019,7 hPa 0,0 l/m 10,3 km/h (2 Bft) S-SW 212 10 min 0,000 mm 190 W/m 14,4 C 21,4 C 27,4 km/h (4 Bft) 100 %
03.07.2017 16:50 22,9 C 22,6 C 22,9 C 59 % 1019,9 hPa 0,0 l/m 12,0 km/h (2 Bft) W-NW 290 0 min 0,000 mm 104 W/m 14,5 C 21,4 C 27,4 km/h (4 Bft) 100 %
03.07.2017 17:00 23,1 C 22,9 C 23,1 C 55 % 1019,9 hPa 0,0 l/m 7,0 km/h (2 Bft) S-SW 202 0 min 0,254 mm 109 W/m 13,6 C 22,9 C 19,3 km/h (3 Bft) 100 %
03.07.2017 17:10 23,2 C 23,1 C 23,2 C 53 % 1019,7 hPa 0,0 l/m 9,0 km/h (2 Bft) W-NW 294 0 min 0,000 mm 120 W/m 13,1 C 22,4 C 25,7 km/h (4 Bft) 100 %
03.07.2017 17:20 23,4 C 23,2 C 23,4 C 57 % 1019,6 hPa 0,0 l/m 7,8 km/h (2 Bft) S-SW 198 0 min 0,000 mm 146 W/m 14,4 C 23,0 C 20,9 km/h (4 Bft) 100 %
03.07.2017 17:30 23,2 C 23,2 C 23,4 C 57 % 1019,6 hPa 0,0 l/m 6,3 km/h (2 Bft) W-NW 294 10 min 0,000 mm 251 W/m 14,2 C 23,2 C 24,1 km/h (4 Bft) 100 %
03.07.2017 17:40 23,5 C 23,2 C 23,5 C 57 % 1019,5 hPa 0,0 l/m 6,5 km/h (2 Bft) NW 309 0 min 0,000 mm 134 W/m 14,5 C 23,5 C 17,7 km/h (3 Bft) 100 %
03.07.2017 17:50 23,3 C 23,3 C 23,6 C 56 % 1019,4 hPa 0,0 l/m 9,0 km/h (2 Bft) W-SW 237 0 min 0,000 mm 137 W/m 14,0 C 22,5 C 20,9 km/h (4 Bft) 100 %
03.07.2017 18:00 22,9 C 22,9 C 23,3 C 57 % 1019,4 hPa 0,0 l/m 4,8 km/h (1 Bft) W-SW 243 10 min 0,153 mm 237 W/m 13,9 C 22,9 C 14,5 km/h (3 Bft) 100 %
03.07.2017 18:10 22,9 C 22,9 C 22,9 C 58 % 1019,3 hPa 0,0 l/m 5,3 km/h (1 Bft) S-SW 213 10 min 0,000 mm 156 W/m 14,2 C 22,9 C 16,1 km/h (3 Bft) 100 %
03.07.2017 18:20 22,9 C 22,9 C 23,0 C 57 % 1019,3 hPa 0,0 l/m 4,3 km/h (1 Bft) SW 215 0 min 0,000 mm 105 W/m 13,9 C 22,9 C 11,3 km/h (2 Bft) 100 %
03.07.2017 18:30 22,9 C 22,8 C 22,9 C 60 % 1019,1 hPa 0,0 l/m 0,3 km/h (0 Bft) SW 228 0 min 0,000 mm 97 W/m 14,7 C 22,9 C 11,3 km/h (2 Bft) 100 %
03.07.2017 18:40 22,7 C 22,7 C 22,9 C 59 % 1019,0 hPa 0,0 l/m 1,7 km/h (1 Bft) W-SW 244 0 min 0,000 mm 65 W/m 14,3 C 22,7 C 11,3 km/h (2 Bft) 100 %
03.07.2017 18:50 22,6 C 22,6 C 22,7 C 57 % 1019,1 hPa 0,0 l/m 4,6 km/h (1 Bft) SW 218 0 min 0,000 mm 127 W/m 13,6 C 22,6 C 16,1 km/h (3 Bft) 90 %
03.07.2017 19:00 22,5 C 22,5 C 22,6 C 57 % 1019,0 hPa 0,0 l/m 4,0 km/h (1 Bft) W-SW 257 0 min 0,101 mm 77 W/m 13,5 C 22,5 C 16,1 km/h (3 Bft) 100 %
03.07.2017 19:10 22,6 C 22,4 C 22,6 C 53 % 1019,0 hPa 0,0 l/m 3,8 km/h (1 Bft) W 275 0 min 0,000 mm 63 W/m 12,5 C 22,6 C 16,1 km/h (3 Bft) 100 %
03.07.2017 19:20 22,6 C 22,6 C 22,7 C 53 % 1019,0 hPa 0,0 l/m 3,3 km/h (1 Bft) NW 311 0 min 0,000 mm 60 W/m 12,5 C 22,6 C 17,7 km/h (3 Bft) 100 %
03.07.2017 19:30 22,4 C 22,4 C 22,6 C 54 % 1019,1 hPa 0,0 l/m 1,4 km/h (1 Bft) W 270 0 min 0,000 mm 95 W/m 12,6 C 22,4 C 11,3 km/h (2 Bft) 100 %
03.07.2017 19:40 22,2 C 22,2 C 22,4 C 55 % 1019,1 hPa 0,0 l/m 6,4 km/h (2 Bft) W 263 0 min 0,000 mm 137 W/m 12,7 C 22,2 C 14,5 km/h (3 Bft) 100 %
03.07.2017 19:50 22,2 C 22,2 C 22,2 C 55 % 1019,2 hPa 0,0 l/m 5,4 km/h (1 Bft) W 264 0 min 0,000 mm 72 W/m 12,7 C 22,2 C 11,3 km/h (2 Bft) 100 %
03.07.2017 20:00 22,1 C 22,1 C 22,2 C 56 % 1019,1 hPa 0,0 l/m 4,7 km/h (1 Bft) W 259 0 min 0,102 mm 111 W/m 12,9 C 22,1 C 9,7 km/h (2 Bft) 100 %
03.07.2017 20:10 22,1 C 22,1 C 22,1 C 55 % 1019,0 hPa 0,0 l/m 4,7 km/h (1 Bft) W 279 0 min 0,000 mm 56 W/m 12,6 C 22,1 C 16,1 km/h (3 Bft) 100 %
03.07.2017 20:20 21,9 C 21,9 C 22,1 C 57 % 1019,2 hPa 0,0 l/m 5,0 km/h (1 Bft) W 271 0 min 0,000 mm 25 W/m 13,0 C 21,9 C 14,5 km/h (3 Bft) 100 %
03.07.2017 20:30 21,6 C 21,6 C 21,9 C 58 % 1019,2 hPa 0,0 l/m 1,9 km/h (1 Bft) W 268 0 min 0,000 mm 18 W/m 13,0 C 21,6 C 6,4 km/h (2 Bft) 100 %
03.07.2017 20:40 21,2 C 21,2 C 21,6 C 59 % 1019,1 hPa 0,0 l/m 1,3 km/h (1 Bft) W 265 0 min 0,000 mm 16 W/m 12,9 C 21,2 C 6,4 km/h (2 Bft) 100 %
03.07.2017 20:50 20,7 C 20,7 C 21,2 C 60 % 1019,1 hPa 0,0 l/m 0,2 km/h (0 Bft) W 264 0 min 0,000 mm 16 W/m 12,7 C 20,7 C 4,8 km/h (1 Bft) 100 %
03.07.2017 21:00 20,3 C 20,3 C 20,7 C 61 % 1019,2 hPa 0,0 l/m 0,5 km/h (0 Bft) W 264 0 min 0,051 mm 16 W/m 12,5 C 20,3 C 4,8 km/h (1 Bft) 100 %
03.07.2017 21:10 20,1 C 20,1 C 20,3 C 62 % 1019,2 hPa 0,0 l/m 0,0 km/h (0 Bft) N 0 0 min 0,000 mm 16 W/m 12,6 C 20,1 C 0,0 km/h (0 Bft) 98 %
03.07.2017 21:20 19,7 C 19,7 C 20,1 C 64 % 1019,2 hPa 0,0 l/m 0,0 km/h (0 Bft) N 0 0 min 0,000 mm 12 W/m 12,7 C 19,7 C 0,0 km/h (0 Bft) 97 %
03.07.2017 21:30 19,4 C 19,4 C 19,7 C 65 % 1019,1 hPa 0,0 l/m 0,0 km/h (0 Bft) N 0 0 min 0,000 mm 7 W/m 12,6 C 19,4 C 0,0 km/h (0 Bft) 97 %
03.07.2017 21:40 19,1 C 19,1 C 19,4 C 65 % 1019,0 hPa 0,0 l/m 0,0 km/h (0 Bft) N 0 0 min 0,000 mm 0 W/m 12,4 C 19,1 C 0,0 km/h (0 Bft) 98 %
03.07.2017 21:50 19,0 C 18,9 C 19,1 C 66 % 1019,2 hPa 0,0 l/m 0,0 km/h (0 Bft) N 0 0 min 0,000 mm 0 W/m 12,5 C 19,0 C 0,0 km/h (0 Bft) 97 %
03.07.2017 22:00 18,8 C 18,8 C 18,9 C 66 % 1019,3 hPa 0,0 l/m 0,0 km/h (0 Bft) W 270 0 min 0,000 mm 0 W/m 12,3 C 18,8 C 1,6 km/h (1 Bft) 98 %
03.07.2017 22:10 18,8 C 18,8 C 18,8 C 67 % 1019,2 hPa 0,0 l/m 0,0 km/h (0 Bft) W 270 0 min 0,000 mm 0 W/m 12,5 C 18,8 C 1,6 km/h (1 Bft) 97 %
03.07.2017 22:20 18,6 C 18,6 C 18,8 C 68 % 1019,2 hPa 0,0 l/m 3,2 km/h (1 Bft) SW 225 0 min 0,000 mm 0 W/m 12,6 C 18,6 C 6,4 km/h (2 Bft) 98 %
03.07.2017 22:30 18,3 C 18,3 C 18,6 C 68 % 1019,3 hPa 0,0 l/m 3,2 km/h (1 Bft) SW 225 0 min 0,000 mm 0 W/m 12,3 C 18,3 C 6,4 km/h (2 Bft) 97 %
03.07.2017 22:40 18,2 C 18,2 C 18,3 C 69 % 1019,3 hPa 0,0 l/m 0,0 km/h (0 Bft) SW 225 0 min 0,000 mm 0 W/m 12,4 C 18,2 C 6,4 km/h (2 Bft) 97 %
03.07.2017 22:50 18,1 C 18,1 C 18,2 C 69 % 1019,3 hPa 0,0 l/m 0,0 km/h (0 Bft) N 0 0 min 0,000 mm 0 W/m 12,3 C 18,1 C 0,0 km/h (0 Bft) 98 %
03.07.2017 23:00 17,9 C 17,9 C 18,1 C 70 % 1019,3 hPa 0,0 l/m 0,0 km/h (0 Bft) SW 225 0 min 0,025 mm 0 W/m 12,3 C 17,9 C 1,6 km/h (1 Bft) 97 %
03.07.2017 23:10 17,8 C 17,8 C 17,9 C 71 % 1019,3 hPa 0,0 l/m 1,6 km/h (1 Bft) SW 225 0 min 0,000 mm 0 W/m 12,5 C 17,8 C 4,8 km/h (1 Bft) 98 %
03.07.2017 23:20 17,7 C 17,7 C 17,8 C 72 % 1019,4 hPa 0,0 l/m 1,6 km/h (1 Bft) SW 225 0 min 0,000 mm 0 W/m 12,6 C 17,7 C 4,8 km/h (1 Bft) 97 %
03.07.2017 23:30 17,6 C 17,6 C 17,7 C 72 % 1019,5 hPa 0,0 l/m 0,0 km/h (0 Bft) SW 225 0 min 0,000 mm 0 W/m 12,5 C 17,6 C 1,6 km/h (1 Bft) 97 %
03.07.2017 23:40 17,4 C 17,4 C 17,6 C 75 % 1019,5 hPa 0,0 l/m 0,0 km/h (0 Bft) N 0 0 min 0,000 mm 0 W/m 12,9 C 17,4 C 0,0 km/h (0 Bft) 98 %
03.07.2017 23:50 17,1 C 17,1 C 17,4 C 76 % 1019,6 hPa 0,0 l/m 0,0 km/h (0 Bft) N 0 0 min 0,000 mm 0 W/m 12,8 C 17,1 C 0,0 km/h (0 Bft) 97 %
_ Min-Zeit 00:50 00:50 00:50 17:10 18:40 - 00:40 - - - - - 22:30 00:50 08:30 18:50
Minimum _ 14,0 C 14,0 C 14,1 C 53 % 1019,0 hPa - 0,0 km/h (0 Bft) - - - - - 12,3 C 14,0 C 0,0 km/h (0 Bft) 90 %
_ Max-Zeit 15:50 15:50 15:50 01:50 08:00 00:00 16:50 - - 09:00 14:00 13:30 13:10 15:50 15:00 00:00
Maximum _ 23,7 C 23,5 C 23,7 C 91 % 1022,6 hPa 0,0 l/m 12,0 km/h
W-NW (2 Bft)
- - 10 min 0,457 mm 1129 W/m 16,3 C 23,6 C 27,4 km/h
W-SW (4 Bft)
100 %
Durchschnitt _ 18,2 C 18,1 C 18,3 C 76 % 1021,0 hPa #0,0 l/m 3,5 km/h (1 Bft) W - #7:40 h #2,870 mm 279 W/m 13,6 C 18,1 C 11,2 km/h (2 Bft) 99 %
PRIVATE WETTERSTATION BILLIGHEIM-ALLFELD - www.neckar-odenwald-wetter.de - Holger Sonntag